Prosser, Nebraska
Current Conditions -  °F | °C
As of 8:53 AM on Wednesday 26 Nov 2014 (Local Time) from KHSI Reporting Station
Overcast Overcast  
Wind Chill: -11°   Ceiling: 1900
Heat Index: -2°   Visibility: 10mi
Dew Point: -6°   Wind: 33mph
Humidity: 72%   Direction: 340°NNW
Pressure: 30.11"   Gusts: 44mph
Location:  40.8074°N, 98.6117°W
Report Text: KHSI 261453Z AUTO 34029G38KT 10SM OVC019 M02/M06 A3011 RMK AO2 PK WND 34038/1453 SLP210 T10171061 53041
Loading
Personal Weather Stations






























Interactive Weather Map New forecast layout! Learn more

10-Day Weather Forecast

Advertisements
Track Severe Weather on mobile